sensor_id;sensor_type;location;lat;lon;timestamp;P1;durP1;ratioP1;P2;durP2;ratioP2
27424;SDS011;15244;49.088;11.886;2023-09-19T00:02:56;1.17;;;1.08;;
27424;SDS011;15244;49.088;11.886;2023-09-19T00:08:01;1.20;;;1.10;;
27424;SDS011;15244;49.088;11.886;2023-09-19T00:13:05;1.20;;;1.10;;
27424;SDS011;15244;49.088;11.886;2023-09-19T00:18:08;1.30;;;1.20;;
27424;SDS011;15244;49.088;11.886;2023-09-19T00:23:11;1.48;;;1.05;;
27424;SDS011;15244;49.088;11.886;2023-09-19T00:28:12;2.80;;;1.30;;
27424;SDS011;15244;49.088;11.886;2023-09-19T00:33:15;3.40;;;1.60;;
27424;SDS011;15244;49.088;11.886;2023-09-19T00:38:18;3.20;;;1.60;;
27424;SDS011;15244;49.088;11.886;2023-09-19T00:43:26;2.00;;;1.80;;
27424;SDS011;15244;49.088;11.886;2023-09-19T00:48:29;1.92;;;1.67;;
27424;SDS011;15244;49.088;11.886;2023-09-19T00:53:34;1.70;;;1.60;;
27424;SDS011;15244;49.088;11.886;2023-09-19T00:58:36;1.85;;;1.50;;
27424;SDS011;15244;49.088;11.886;2023-09-19T01:03:38;1.33;;;1.20;;
27424;SDS011;15244;49.088;11.886;2023-09-19T01:08:42;1.50;;;1.38;;
27424;SDS011;15244;49.088;11.886;2023-09-19T01:13:47;1.42;;;1.27;;
27424;SDS011;15244;49.088;11.886;2023-09-19T01:19:32;1.42;;;1.20;;
27424;SDS011;15244;49.088;11.886;2023-09-19T01:30:11;0.98;;;0.98;;
27424;SDS011;15244;49.088;11.886;2023-09-19T01:35:28;1.50;;;1.40;;
27424;SDS011;15244;49.088;11.886;2023-09-19T01:40:30;2.72;;;1.50;;
27424;SDS011;15244;49.088;11.886;2023-09-19T01:45:46;2.05;;;1.10;;
27424;SDS011;15244;49.088;11.886;2023-09-19T01:51:00;1.60;;;1.45;;
27424;SDS011;15244;49.088;11.886;2023-09-19T01:56:07;1.48;;;1.38;;
27424;SDS011;15244;49.088;11.886;2023-09-19T02:01:16;1.20;;;1.10;;
27424;SDS011;15244;49.088;11.886;2023-09-19T02:06:21;1.20;;;1.10;;
27424;SDS011;15244;49.088;11.886;2023-09-19T02:11:26;1.55;;;1.02;;
27424;SDS011;15244;49.088;11.886;2023-09-19T02:16:27;1.45;;;1.02;;
27424;SDS011;15244;49.088;11.886;2023-09-19T02:21:30;1.35;;;1.25;;
27424;SDS011;15244;49.088;11.886;2023-09-19T02:26:32;1.30;;;1.20;;
27424;SDS011;15244;49.088;11.886;2023-09-19T02:31:39;2.00;;;1.80;;
27424;SDS011;15244;49.088;11.886;2023-09-19T02:36:43;1.10;;;1.10;;
27424;SDS011;15244;49.088;11.886;2023-09-19T02:41:46;1.50;;;1.40;;
27424;SDS011;15244;49.088;11.886;2023-09-19T02:46:47;3.55;;;1.40;;
27424;SDS011;15244;49.088;11.886;2023-09-19T02:51:49;1.70;;;1.35;;
27424;SDS011;15244;49.088;11.886;2023-09-19T02:56:51;1.33;;;1.25;;
27424;SDS011;15244;49.088;11.886;2023-09-19T03:01:52;2.17;;;1.20;;
27424;SDS011;15244;49.088;11.886;2023-09-19T03:06:56;1.50;;;1.40;;
27424;SDS011;15244;49.088;11.886;2023-09-19T03:12:02;1.67;;;1.02;;
27424;SDS011;15244;49.088;11.886;2023-09-19T03:17:07;1.33;;;1.25;;
27424;SDS011;15244;49.088;11.886;2023-09-19T03:22:11;1.55;;;1.13;;
27424;SDS011;15244;49.088;11.886;2023-09-19T03:27:13;1.35;;;1.10;;
27424;SDS011;15244;49.088;11.886;2023-09-19T03:32:17;2.17;;;1.45;;
27424;SDS011;15244;49.088;11.886;2023-09-19T03:37:20;1.73;;;1.50;;
27424;SDS011;15244;49.088;11.886;2023-09-19T03:42:21;2.63;;;1.08;;
27424;SDS011;15244;49.088;11.886;2023-09-19T03:47:28;1.65;;;1.10;;
27424;SDS011;15244;49.088;11.886;2023-09-19T03:52:32;0.88;;;0.82;;
27424;SDS011;15244;49.088;11.886;2023-09-19T03:57:33;1.52;;;1.33;;
27424;SDS011;15244;49.088;11.886;2023-09-19T04:02:40;2.00;;;1.10;;
27424;SDS011;15244;49.088;11.886;2023-09-19T04:07:42;1.30;;;1.20;;
27424;SDS011;15244;49.088;11.886;2023-09-19T04:12:53;1.63;;;0.98;;
27424;SDS011;15244;49.088;11.886;2023-09-19T04:17:56;1.58;;;0.90;;
27424;SDS011;15244;49.088;11.886;2023-09-19T04:22:58;2.85;;;1.30;;
27424;SDS011;15244;49.088;11.886;2023-09-19T04:28:01;1.17;;;1.08;;
27424;SDS011;15244;49.088;11.886;2023-09-19T04:33:03;1.38;;;1.23;;
27424;SDS011;15244;49.088;11.886;2023-09-19T04:38:08;1.75;;;0.90;;
27424;SDS011;15244;49.088;11.886;2023-09-19T04:43:10;0.93;;;0.93;;
27424;SDS011;15244;49.088;11.886;2023-09-19T04:48:12;2.15;;;1.20;;
27424;SDS011;15244;49.088;11.886;2023-09-19T04:53:16;1.20;;;1.00;;
27424;SDS011;15244;49.088;11.886;2023-09-19T04:58:21;1.77;;;1.08;;
27424;SDS011;15244;49.088;11.886;2023-09-19T05:03:24;0.95;;;0.90;;
27424;SDS011;15244;49.088;11.886;2023-09-19T05:08:25;2.00;;;1.08;;
27424;SDS011;15244;49.088;11.886;2023-09-19T05:13:28;1.20;;;1.05;;
27424;SDS011;15244;49.088;11.886;2023-09-19T05:18:29;1.52;;;1.00;;
27424;SDS011;15244;49.088;11.886;2023-09-19T05:23:33;1.88;;;1.00;;
27424;SDS011;15244;49.088;11.886;2023-09-19T05:28:35;1.52;;;0.95;;
27424;SDS011;15244;49.088;11.886;2023-09-19T05:33:37;0.93;;;0.70;;
27424;SDS011;15244;49.088;11.886;2023-09-19T05:38:41;1.50;;;0.95;;
27424;SDS011;15244;49.088;11.886;2023-09-19T05:43:43;0.82;;;0.82;;
27424;SDS011;15244;49.088;11.886;2023-09-19T05:48:46;1.40;;;0.93;;
27424;SDS011;15244;49.088;11.886;2023-09-19T05:53:49;0.85;;;0.80;;
27424;SDS011;15244;49.088;11.886;2023-09-19T05:58:54;1.45;;;0.80;;
27424;SDS011;15244;49.088;11.886;2023-09-19T06:03:55;2.05;;;0.75;;
27424;SDS011;15244;49.088;11.886;2023-09-19T06:08:57;1.10;;;0.80;;
27424;SDS011;15244;49.088;11.886;2023-09-19T06:13:59;0.57;;;0.55;;
27424;SDS011;15244;49.088;11.886;2023-09-19T06:19:02;1.88;;;0.90;;
27424;SDS011;15244;49.088;11.886;2023-09-19T06:24:04;3.03;;;0.90;;
27424;SDS011;15244;49.088;11.886;2023-09-19T06:29:06;2.38;;;0.70;;
27424;SDS011;15244;49.088;11.886;2023-09-19T06:34:09;0.70;;;0.70;;
27424;SDS011;15244;49.088;11.886;2023-09-19T06:39:10;1.05;;;0.98;;
27424;SDS011;15244;49.088;11.886;2023-09-19T06:44:12;3.00;;;1.00;;
27424;SDS011;15244;49.088;11.886;2023-09-19T06:49:14;1.35;;;0.77;;
27424;SDS011;15244;49.088;11.886;2023-09-19T06:54:16;1.15;;;0.60;;
27424;SDS011;15244;49.088;11.886;2023-09-19T06:59:19;1.02;;;0.75;;
27424;SDS011;15244;49.088;11.886;2023-09-19T07:04:21;1.67;;;0.90;;
27424;SDS011;15244;49.088;11.886;2023-09-19T07:09:23;2.25;;;0.80;;
27424;SDS011;15244;49.088;11.886;2023-09-19T07:14:25;1.17;;;1.00;;
27424;SDS011;15244;49.088;11.886;2023-09-19T07:19:26;0.85;;;0.85;;
27424;SDS011;15244;49.088;11.886;2023-09-19T07:24:32;0.52;;;0.52;;
27424;SDS011;15244;49.088;11.886;2023-09-19T07:29:34;1.45;;;0.90;;
27424;SDS011;15244;49.088;11.886;2023-09-19T07:34:36;0.80;;;0.80;;
27424;SDS011;15244;49.088;11.886;2023-09-19T07:39:37;0.80;;;0.80;;
27424;SDS011;15244;49.088;11.886;2023-09-19T07:44:42;1.83;;;1.08;;
27424;SDS011;15244;49.088;11.886;2023-09-19T07:49:46;1.30;;;1.20;;
27424;SDS011;15244;49.088;11.886;2023-09-19T07:54:50;0.80;;;0.80;;
27424;SDS011;15244;49.088;11.886;2023-09-19T07:59:51;2.38;;;1.23;;
27424;SDS011;15244;49.088;11.886;2023-09-19T08:04:53;1.45;;;1.27;;
27424;SDS011;15244;49.088;11.886;2023-09-19T08:09:55;1.40;;;1.30;;
27424;SDS011;15244;49.088;11.886;2023-09-19T08:14:56;1.95;;;1.38;;
27424;SDS011;15244;49.088;11.886;2023-09-19T08:19:58;5.25;;;1.45;;
27424;SDS011;15244;49.088;11.886;2023-09-19T08:25:00;1.50;;;0.80;;
27424;SDS011;15244;49.088;11.886;2023-09-19T08:30:03;1.48;;;0.90;;
27424;SDS011;15244;49.088;11.886;2023-09-19T08:35:05;1.10;;;1.00;;
27424;SDS011;15244;49.088;11.886;2023-09-19T08:40:10;2.92;;;1.08;;
27424;SDS011;15244;49.088;11.886;2023-09-19T08:45:12;1.08;;;0.90;;
27424;SDS011;15244;49.088;11.886;2023-09-19T08:50:23;2.75;;;1.50;;
27424;SDS011;15244;49.088;11.886;2023-09-19T08:55:29;1.33;;;0.90;;
27424;SDS011;15244;49.088;11.886;2023-09-19T09:00:33;0.90;;;0.90;;
27424;SDS011;15244;49.088;11.886;2023-09-19T09:05:36;2.50;;;0.98;;
27424;SDS011;15244;49.088;11.886;2023-09-19T09:10:38;0.65;;;0.65;;
27424;SDS011;15244;49.088;11.886;2023-09-19T09:15:42;1.25;;;1.00;;
27424;SDS011;15244;49.088;11.886;2023-09-19T09:20:45;0.77;;;0.73;;
27424;SDS011;15244;49.088;11.886;2023-09-19T09:25:49;1.20;;;0.63;;
27424;SDS011;15244;49.088;11.886;2023-09-19T09:30:52;1.00;;;0.90;;
27424;SDS011;15244;49.088;11.886;2023-09-19T09:36:00;0.60;;;0.60;;
27424;SDS011;15244;49.088;11.886;2023-09-19T09:41:03;0.80;;;0.80;;
27424;SDS011;15244;49.088;11.886;2023-09-19T09:46:17;0.88;;;0.77;;
27424;SDS011;15244;49.088;11.886;2023-09-19T09:51:29;0.82;;;0.70;;
27424;SDS011;15244;49.088;11.886;2023-09-19T09:56:33;0.75;;;0.75;;
27424;SDS011;15244;49.088;11.886;2023-09-19T10:01:48;0.88;;;0.88;;
27424;SDS011;15244;49.088;11.886;2023-09-19T10:06:55;1.52;;;0.90;;
27424;SDS011;15244;49.088;11.886;2023-09-19T10:12:03;1.02;;;0.93;;
27424;SDS011;15244;49.088;11.886;2023-09-19T10:17:10;0.80;;;0.80;;
27424;SDS011;15244;49.088;11.886;2023-09-19T10:22:17;1.00;;;0.90;;
27424;SDS011;15244;49.088;11.886;2023-09-19T10:27:24;4.15;;;1.33;;
27424;SDS011;15244;49.088;11.886;2023-09-19T10:32:27;1.38;;;1.10;;
27424;SDS011;15244;49.088;11.886;2023-09-19T10:37:35;1.15;;;0.95;;
27424;SDS011;15244;49.088;11.886;2023-09-19T10:42:40;1.00;;;0.90;;
27424;SDS011;15244;49.088;11.886;2023-09-19T10:47:43;1.30;;;1.13;;
27424;SDS011;15244;49.088;11.886;2023-09-19T10:52:45;1.90;;;1.67;;
27424;SDS011;15244;49.088;11.886;2023-09-19T10:57:48;1.75;;;1.30;;
27424;SDS011;15244;49.088;11.886;2023-09-19T11:08:10;2.47;;;1.35;;
27424;SDS011;15244;49.088;11.886;2023-09-19T11:13:34;1.90;;;1.10;;
27424;SDS011;15244;49.088;11.886;2023-09-19T11:23:43;1.58;;;1.48;;
27424;SDS011;15244;49.088;11.886;2023-09-19T11:29:24;0.75;;;0.75;;
27424;SDS011;15244;49.088;11.886;2023-09-19T11:34:38;1.52;;;1.17;;
27424;SDS011;15244;49.088;11.886;2023-09-19T11:50:59;1.85;;;1.30;;
27424;SDS011;15244;49.088;11.886;2023-09-19T11:56:05;0.80;;;0.80;;
27424;SDS011;15244;49.088;11.886;2023-09-19T12:01:15;1.63;;;0.77;;
27424;SDS011;15244;49.088;11.886;2023-09-19T12:06:23;0.90;;;0.90;;
27424;SDS011;15244;49.088;11.886;2023-09-19T12:11:30;2.03;;;1.10;;
27424;SDS011;15244;49.088;11.886;2023-09-19T12:16:36;0.90;;;0.90;;
27424;SDS011;15244;49.088;11.886;2023-09-19T12:21:39;0.60;;;0.50;;
27424;SDS011;15244;49.088;11.886;2023-09-19T12:26:42;0.90;;;0.90;;
27424;SDS011;15244;49.088;11.886;2023-09-19T12:31:47;1.08;;;0.98;;
27424;SDS011;15244;49.088;11.886;2023-09-19T12:37:05;1.58;;;0.80;;
27424;SDS011;15244;49.088;11.886;2023-09-19T12:42:23;1.02;;;0.93;;
27424;SDS011;15244;49.088;11.886;2023-09-19T12:47:26;0.85;;;0.68;;
27424;SDS011;15244;49.088;11.886;2023-09-19T12:52:35;0.75;;;0.63;;
27424;SDS011;15244;49.088;11.886;2023-09-19T12:57:38;2.67;;;1.13;;
27424;SDS011;15244;49.088;11.886;2023-09-19T13:03:08;0.80;;;0.80;;
27424;SDS011;15244;49.088;11.886;2023-09-19T13:08:25;0.75;;;0.75;;
27424;SDS011;15244;49.088;11.886;2023-09-19T13:13:33;0.90;;;0.90;;
27424;SDS011;15244;49.088;11.886;2023-09-19T13:18:48;0.70;;;0.60;;
27424;SDS011;15244;49.088;11.886;2023-09-19T13:23:55;0.88;;;0.70;;
27424;SDS011;15244;49.088;11.886;2023-09-19T13:29:00;0.98;;;0.80;;
27424;SDS011;15244;49.088;11.886;2023-09-19T13:34:02;0.85;;;0.70;;
27424;SDS011;15244;49.088;11.886;2023-09-19T13:39:04;1.70;;;0.75;;
27424;SDS011;15244;49.088;11.886;2023-09-19T13:44:07;1.95;;;0.88;;
27424;SDS011;15244;49.088;11.886;2023-09-19T13:49:09;3.70;;;0.88;;
27424;SDS011;15244;49.088;11.886;2023-09-19T13:54:11;1.00;;;0.73;;
27424;SDS011;15244;49.088;11.886;2023-09-19T13:59:16;1.55;;;0.73;;
27424;SDS011;15244;49.088;11.886;2023-09-19T14:04:18;1.13;;;1.00;;
27424;SDS011;15244;49.088;11.886;2023-09-19T14:09:19;1.30;;;0.80;;
27424;SDS011;15244;49.088;11.886;2023-09-19T14:14:24;0.95;;;0.95;;
27424;SDS011;15244;49.088;11.886;2023-09-19T14:19:26;0.90;;;0.90;;
27424;SDS011;15244;49.088;11.886;2023-09-19T14:24:28;0.98;;;0.85;;
27424;SDS011;15244;49.088;11.886;2023-09-19T14:29:32;1.52;;;0.80;;
27424;SDS011;15244;49.088;11.886;2023-09-19T14:34:34;0.88;;;0.80;;
27424;SDS011;15244;49.088;11.886;2023-09-19T14:39:38;0.60;;;0.60;;
27424;SDS011;15244;49.088;11.886;2023-09-19T14:44:41;0.93;;;0.60;;
27424;SDS011;15244;49.088;11.886;2023-09-19T14:49:42;0.65;;;0.65;;
27424;SDS011;15244;49.088;11.886;2023-09-19T14:54:44;1.00;;;0.60;;
27424;SDS011;15244;49.088;11.886;2023-09-19T14:59:48;0.60;;;0.60;;
27424;SDS011;15244;49.088;11.886;2023-09-19T15:04:49;0.52;;;0.52;;
27424;SDS011;15244;49.088;11.886;2023-09-19T15:09:52;1.05;;;0.80;;
27424;SDS011;15244;49.088;11.886;2023-09-19T15:14:54;0.80;;;0.80;;
27424;SDS011;15244;49.088;11.886;2023-09-19T15:19:58;1.00;;;0.90;;
27424;SDS011;15244;49.088;11.886;2023-09-19T15:24:59;1.33;;;0.70;;
27424;SDS011;15244;49.088;11.886;2023-09-19T15:30:03;0.68;;;0.65;;
27424;SDS011;15244;49.088;11.886;2023-09-19T15:35:06;1.92;;;0.77;;
27424;SDS011;15244;49.088;11.886;2023-09-19T15:40:13;0.40;;;0.40;;
27424;SDS011;15244;49.088;11.886;2023-09-19T15:45:17;1.85;;;0.70;;
27424;SDS011;15244;49.088;11.886;2023-09-19T15:50:20;0.70;;;0.55;;
27424;SDS011;15244;49.088;11.886;2023-09-19T15:55:23;0.85;;;0.85;;
27424;SDS011;15244;49.088;11.886;2023-09-19T16:00:24;0.77;;;0.77;;
27424;SDS011;15244;49.088;11.886;2023-09-19T16:05:26;1.20;;;0.85;;
27424;SDS011;15244;49.088;11.886;2023-09-19T16:10:28;0.68;;;0.68;;
27424;SDS011;15244;49.088;11.886;2023-09-19T16:15:30;0.70;;;0.70;;
27424;SDS011;15244;49.088;11.886;2023-09-19T16:20:31;0.60;;;0.60;;
27424;SDS011;15244;49.088;11.886;2023-09-19T16:25:34;1.05;;;0.73;;
27424;SDS011;15244;49.088;11.886;2023-09-19T16:30:36;1.58;;;0.50;;
27424;SDS011;15244;49.088;11.886;2023-09-19T16:35:39;1.50;;;0.70;;
27424;SDS011;15244;49.088;11.886;2023-09-19T16:40:50;3.00;;;1.05;;
27424;SDS011;15244;49.088;11.886;2023-09-19T16:45:56;0.55;;;0.55;;
27424;SDS011;15244;49.088;11.886;2023-09-19T16:50:59;0.60;;;0.60;;
27424;SDS011;15244;49.088;11.886;2023-09-19T17:01:12;0.70;;;0.70;;
27424;SDS011;15244;49.088;11.886;2023-09-19T17:06:15;2.85;;;0.82;;
27424;SDS011;15244;49.088;11.886;2023-09-19T17:11:19;0.70;;;0.70;;
27424;SDS011;15244;49.088;11.886;2023-09-19T17:16:22;2.08;;;0.90;;
27424;SDS011;15244;49.088;11.886;2023-09-19T17:21:25;2.15;;;1.00;;
27424;SDS011;15244;49.088;11.886;2023-09-19T17:26:28;0.80;;;0.68;;
27424;SDS011;15244;49.088;11.886;2023-09-19T17:31:30;1.05;;;0.70;;
27424;SDS011;15244;49.088;11.886;2023-09-19T17:36:31;1.92;;;0.90;;
27424;SDS011;15244;49.088;11.886;2023-09-19T17:41:36;0.80;;;0.80;;
27424;SDS011;15244;49.088;11.886;2023-09-19T17:46:43;0.70;;;0.70;;
27424;SDS011;15244;49.088;11.886;2023-09-19T17:51:45;1.42;;;0.77;;
27424;SDS011;15244;49.088;11.886;2023-09-19T17:56:46;0.95;;;0.60;;
27424;SDS011;15244;49.088;11.886;2023-09-19T18:01:50;0.65;;;0.60;;
27424;SDS011;15244;49.088;11.886;2023-09-19T18:06:52;3.22;;;0.93;;
27424;SDS011;15244;49.088;11.886;2023-09-19T18:11:53;1.35;;;0.73;;
27424;SDS011;15244;49.088;11.886;2023-09-19T18:16:55;1.30;;;1.00;;
27424;SDS011;15244;49.088;11.886;2023-09-19T18:21:59;1.55;;;0.80;;
27424;SDS011;15244;49.088;11.886;2023-09-19T18:27:05;0.77;;;0.75;;
27424;SDS011;15244;49.088;11.886;2023-09-19T18:32:09;1.40;;;1.30;;
27424;SDS011;15244;49.088;11.886;2023-09-19T18:37:11;1.55;;;1.45;;
27424;SDS011;15244;49.088;11.886;2023-09-19T18:42:12;3.63;;;1.50;;
27424;SDS011;15244;49.088;11.886;2023-09-19T18:47:14;2.22;;;2.03;;
27424;SDS011;15244;49.088;11.886;2023-09-19T18:52:17;3.17;;;1.30;;
27424;SDS011;15244;49.088;11.886;2023-09-19T18:57:18;2.83;;;1.42;;
27424;SDS011;15244;49.088;11.886;2023-09-19T19:02:22;1.20;;;1.10;;
27424;SDS011;15244;49.088;11.886;2023-09-19T19:07:25;1.40;;;1.30;;
27424;SDS011;15244;49.088;11.886;2023-09-19T19:12:26;3.85;;;1.40;;
27424;SDS011;15244;49.088;11.886;2023-09-19T19:17:28;4.45;;;4.15;;
27424;SDS011;15244;49.088;11.886;2023-09-19T19:22:33;4.22;;;3.92;;
27424;SDS011;15244;49.088;11.886;2023-09-19T19:27:37;2.92;;;2.72;;
27424;SDS011;15244;49.088;11.886;2023-09-19T19:32:39;3.15;;;2.70;;
27424;SDS011;15244;49.088;11.886;2023-09-19T19:37:42;3.55;;;2.70;;
27424;SDS011;15244;49.088;11.886;2023-09-19T19:42:44;2.92;;;2.72;;
27424;SDS011;15244;49.088;11.886;2023-09-19T19:47:49;2.33;;;2.13;;
27424;SDS011;15244;49.088;11.886;2023-09-19T19:52:53;3.35;;;2.45;;
27424;SDS011;15244;49.088;11.886;2023-09-19T19:57:57;2.08;;;1.67;;
27424;SDS011;15244;49.088;11.886;2023-09-19T20:03:00;2.03;;;1.67;;
27424;SDS011;15244;49.088;11.886;2023-09-19T20:08:01;1.45;;;1.35;;
27424;SDS011;15244;49.088;11.886;2023-09-19T20:13:08;1.60;;;1.50;;
27424;SDS011;15244;49.088;11.886;2023-09-19T20:18:11;1.33;;;1.20;;
27424;SDS011;15244;49.088;11.886;2023-09-19T20:23:14;1.27;;;1.17;;
27424;SDS011;15244;49.088;11.886;2023-09-19T20:28:16;1.67;;;0.80;;
27424;SDS011;15244;49.088;11.886;2023-09-19T20:33:23;1.58;;;1.27;;
27424;SDS011;15244;49.088;11.886;2023-09-19T20:38:25;1.33;;;1.17;;
27424;SDS011;15244;49.088;11.886;2023-09-19T20:43:27;0.95;;;0.95;;
27424;SDS011;15244;49.088;11.886;2023-09-19T20:48:31;1.20;;;1.10;;
27424;SDS011;15244;49.088;11.886;2023-09-19T20:53:38;1.95;;;1.35;;
27424;SDS011;15244;49.088;11.886;2023-09-19T20:58:42;1.33;;;1.02;;
27424;SDS011;15244;49.088;11.886;2023-09-19T21:03:44;1.30;;;1.20;;
27424;SDS011;15244;49.088;11.886;2023-09-19T21:08:46;2.17;;;1.25;;
27424;SDS011;15244;49.088;11.886;2023-09-19T21:13:48;1.20;;;1.10;;
27424;SDS011;15244;49.088;11.886;2023-09-19T21:18:51;1.30;;;1.20;;
27424;SDS011;15244;49.088;11.886;2023-09-19T21:23:55;1.42;;;1.33;;
27424;SDS011;15244;49.088;11.886;2023-09-19T21:28:56;1.02;;;0.98;;
27424;SDS011;15244;49.088;11.886;2023-09-19T21:33:59;1.00;;;1.00;;
27424;SDS011;15244;49.088;11.886;2023-09-19T21:39:01;0.73;;;0.73;;
27424;SDS011;15244;49.088;11.886;2023-09-19T21:44:02;1.48;;;1.38;;
27424;SDS011;15244;49.088;11.886;2023-09-19T21:49:04;1.33;;;1.23;;
27424;SDS011;15244;49.088;11.886;2023-09-19T21:54:06;2.05;;;0.80;;
27424;SDS011;15244;49.088;11.886;2023-09-19T21:59:08;1.00;;;0.82;;
27424;SDS011;15244;49.088;11.886;2023-09-19T22:04:12;1.42;;;1.10;;
27424;SDS011;15244;49.088;11.886;2023-09-19T22:09:14;1.60;;;1.50;;
27424;SDS011;15244;49.088;11.886;2023-09-19T22:14:16;1.38;;;1.27;;
27424;SDS011;15244;49.088;11.886;2023-09-19T22:19:17;1.67;;;1.35;;
27424;SDS011;15244;49.088;11.886;2023-09-19T22:24:19;1.98;;;1.20;;
27424;SDS011;15244;49.088;11.886;2023-09-19T22:29:22;1.58;;;1.20;;
27424;SDS011;15244;49.088;11.886;2023-09-19T22:34:24;1.48;;;1.38;;
27424;SDS011;15244;49.088;11.886;2023-09-19T22:39:26;1.05;;;0.95;;
27424;SDS011;15244;49.088;11.886;2023-09-19T22:44:30;2.05;;;1.17;;
27424;SDS011;15244;49.088;11.886;2023-09-19T22:49:35;1.50;;;1.25;;
27424;SDS011;15244;49.088;11.886;2023-09-19T22:54:39;1.35;;;0.90;;
27424;SDS011;15244;49.088;11.886;2023-09-19T22:59:42;1.40;;;1.00;;
27424;SDS011;15244;49.088;11.886;2023-09-19T23:04:44;1.23;;;1.13;;
27424;SDS011;15244;49.088;11.886;2023-09-19T23:09:48;1.63;;;1.30;;
27424;SDS011;15244;49.088;11.886;2023-09-19T23:14:50;1.50;;;1.05;;
27424;SDS011;15244;49.088;11.886;2023-09-19T23:19:54;1.45;;;1.15;;
27424;SDS011;15244;49.088;11.886;2023-09-19T23:24:57;1.10;;;1.02;;
27424;SDS011;15244;49.088;11.886;2023-09-19T23:30:18;3.63;;;1.17;;
27424;SDS011;15244;49.088;11.886;2023-09-19T23:35:24;1.25;;;1.13;;
27424;SDS011;15244;49.088;11.886;2023-09-19T23:40:28;1.55;;;0.98;;
27424;SDS011;15244;49.088;11.886;2023-09-19T23:45:32;1.27;;;0.95;;
27424;SDS011;15244;49.088;11.886;2023-09-19T23:50:38;1.15;;;1.10;;
27424;SDS011;15244;49.088;11.886;2023-09-19T23:55:44;1.20;;;1.10;;
